Time;durP1;ratioP1;P1;durP2;ratioP2;P2;SDS_P1;SDS_P2;PMS_P1;PMS_P2;Temp;Humidity;BMP_temperature;BMP_pressure;BME280_temperature;BME280_humidity;BME280_pressure;Samples;Min_cycle;Max_cycle;Signal;HPM_P1;HPM_P2
2023/05/26 13:50:55;;;;;;;92.60;11.60;;;;;;;;;;5025393;27;20977;-55
2023/05/26 13:53:21;;;;;;;62.35;8.75;;;;;;;;;;4994944;28;20033;-54
2023/05/26 13:55:46;;;;;;;51.20;8.60;;;;;;;;;;4995860;28;20032;-53
2023/05/26 13:58:12;;;;;;;57.40;8.75;;;;;;;;;;4996912;28;20010;-55
2023/05/26 14:00:37;;;;;;;72.63;10.70;;;;;;;;;;4996013;28;20042;-56
2023/05/26 14:03:03;;;;;;;41.75;7.78;;;;;;;;;;4995576;28;20013;-58
2023/05/26 14:05:28;;;;;;;88.07;12.70;;;;;;;;;;4994344;28;20041;-57
2023/05/26 14:07:54;;;;;;;52.17;8.48;;;;;;;;;;4997275;28;20021;-57
2023/05/26 14:10:19;;;;;;;50.93;8.27;;;;;;;;;;4995573;28;20056;-56
2023/05/26 14:12:44;;;;;;;37.53;6.75;;;;;;;;;;4994969;28;20272;-55
2023/05/26 14:15:10;;;;;;;44.43;7.00;;;;;;;;;;4995256;28;20010;-55
2023/05/26 14:17:35;;;;;;;72.53;10.98;;;;;;;;;;4993414;28;20348;-55
2023/05/26 14:20:01;;;;;;;41.05;7.35;;;;;;;;;;4994533;28;20097;-54
2023/05/26 14:22:26;;;;;;;61.25;9.75;;;;;;;;;;4993219;28;20046;-55
2023/05/26 14:24:52;;;;;;;50.50;8.77;;;;;;;;;;4995945;28;20026;-60
2023/05/26 14:27:18;;;;;;;47.22;7.93;;;;;;;;;;4995506;28;20076;-56
2023/05/26 14:29:43;;;;;;;52.20;8.93;;;;;;;;;;4995084;28;20645;-57
2023/05/26 14:32:08;;;;;;;59.03;9.20;;;;;;;;;;4994193;28;20107;-57
2023/05/26 14:34:33;;;;;;;92.57;12.10;;;;;;;;;;4994728;28;20249;-56
2023/05/26 14:36:59;;;;;;;60.63;9.43;;;;;;;;;;4995572;28;20366;-56
2023/05/26 14:39:25;;;;;;;60.08;9.63;;;;;;;;;;4995103;28;20265;-57
2023/05/26 14:41:50;;;;;;;54.97;8.90;;;;;;;;;;4994676;28;20045;-55
2023/05/26 14:44:15;;;;;;;71.33;10.27;;;;;;;;;;4996072;28;20036;-58
2023/05/26 14:46:41;;;;;;;89.13;12.63;;;;;;;;;;4993574;28;20037;-56
2023/05/26 14:49:07;;;;;;;70.50;10.23;;;;;;;;;;4995644;28;20032;-59
2023/05/26 14:51:33;;;;;;;85.90;12.15;;;;;;;;;;4992179;28;20026;-60
2023/05/26 14:53:59;;;;;;;52.85;8.52;;;;;;;;;;4995294;28;20018;-55
2023/05/26 14:56:26;;;;;;;61.22;9.55;;;;;;;;;;4993194;28;20522;-54
2023/05/26 14:58:51;;;;;;;59.40;9.30;;;;;;;;;;4993638;28;20843;-58
2023/05/26 15:01:17;;;;;;;90.82;12.40;;;;;;;;;;4986763;28;20585;-56
2023/05/26 15:03:42;;;;;;;90.37;11.93;;;;;;;;;;4983458;28;20547;-60
2023/05/26 15:06:10;;;;;;;51.20;8.27;;;;;;;;;;4985244;28;20149;-60
2023/05/26 15:08:37;;;;;;;80.03;12.07;;;;;;;;;;4985918;28;20293;-59
2023/05/26 15:11:02;;;;;;;44.88;7.70;;;;;;;;;;4985429;28;20502;-58
2023/05/26 15:13:28;;;;;;;63.88;9.23;;;;;;;;;;4981981;28;20026;-58
2023/05/26 15:15:53;;;;;;;60.17;9.07;;;;;;;;;;4985715;28;20042;-58
2023/05/26 15:18:18;;;;;;;48.70;7.82;;;;;;;;;;4985546;28;20967;-61
2023/05/26 15:20:45;;;;;;;67.27;9.73;;;;;;;;;;4970628;28;20042;-60
2023/05/26 15:23:10;;;;;;;55.63;9.10;;;;;;;;;;4984986;28;20261;-59
2023/05/26 15:25:35;;;;;;;91.00;11.80;;;;;;;;;;4985794;28;20404;-59
2023/05/26 15:28:00;;;;;;;58.00;8.67;;;;;;;;;;4985581;28;20010;-57
2023/05/26 15:30:26;;;;;;;48.72;7.68;;;;;;;;;;4982201;28;20292;-55
2023/05/26 15:32:51;;;;;;;46.80;7.75;;;;;;;;;;4985072;28;20049;-55
2023/05/26 15:35:17;;;;;;;73.13;9.60;;;;;;;;;;4983358;28;20336;-58
2023/05/26 15:37:43;;;;;;;78.15;10.25;;;;;;;;;;4985970;28;20018;-58
2023/05/26 15:40:08;;;;;;;46.50;6.95;;;;;;;;;;4984564;28;20104;-56
2023/05/26 15:42:34;;;;;;;88.72;11.40;;;;;;;;;;4970142;28;20078;-58
2023/05/26 15:45:04;;;;;;;43.10;7.95;;;;;;;;;;4985051;28;20029;-58
2023/05/26 15:47:32;;;;;;;57.75;8.32;;;;;;;;;;4984121;28;20111;-55
2023/05/26 15:49:57;;;;;;;42.17;7.35;;;;;;;;;;4984342;28;20388;-55
2023/05/26 15:52:22;;;;;;;48.38;7.53;;;;;;;;;;4985768;28;20056;-55
2023/05/26 15:54:48;;;;;;;47.63;7.60;;;;;;;;;;4983383;28;20018;-56
2023/05/26 15:57:14;;;;;;;42.17;7.33;;;;;;;;;;4984674;28;20038;-55
2023/05/26 15:59:39;;;;;;;74.75;9.55;;;;;;;;;;4982520;28;21027;-59
2023/05/26 16:02:05;;;;;;;45.33;6.73;;;;;;;;;;4985975;28;20100;-59
2023/05/26 16:04:30;;;;;;;58.78;7.63;;;;;;;;;;4984262;28;20049;-59
2023/05/26 16:06:55;;;;;;;69.10;8.67;;;;;;;;;;4983921;28;20042;-58
2023/05/26 16:09:21;;;;;;;67.87;8.63;;;;;;;;;;4986436;28;20018;-59
2023/05/26 16:11:46;;;;;;;101.27;11.27;;;;;;;;;;4984535;28;20038;-58
2023/05/26 16:14:11;;;;;;;72.80;9.13;;;;;;;;;;4981435;28;20265;-57
2023/05/26 16:16:36;;;;;;;82.77;9.73;;;;;;;;;;4983400;28;20073;-58
2023/05/26 16:19:02;;;;;;;73.20;9.30;;;;;;;;;;4986766;28;20033;-60
2023/05/26 16:21:27;;;;;;;59.17;7.87;;;;;;;;;;4984628;28;20046;-60
2023/05/26 16:23:52;;;;;;;68.27;8.67;;;;;;;;;;4985365;28;20281;-56
2023/05/26 16:26:17;;;;;;;75.17;8.80;;;;;;;;;;4984428;28;20196;-57
2023/05/26 16:28:43;;;;;;;105.63;11.18;;;;;;;;;;4983121;28;20289;-60
2023/05/26 16:31:08;;;;;;;63.07;8.00;;;;;;;;;;4983691;28;20030;-59
2023/05/26 16:33:33;;;;;;;103.68;10.48;;;;;;;;;;4982838;28;20423;-58
2023/05/26 16:35:59;;;;;;;62.47;8.02;;;;;;;;;;4984788;28;20172;-58
2023/05/26 16:38:26;;;;;;;66.13;8.07;;;;;;;;;;4984309;28;20097;-59
2023/05/26 16:40:51;;;;;;;71.18;8.80;;;;;;;;;;4984019;28;20092;-59
2023/05/26 16:43:16;;;;;;;75.00;8.70;;;;;;;;;;4985055;28;20022;-57
2023/05/26 16:45:42;;;;;;;108.63;11.13;;;;;;;;;;4981200;28;20590;-58
2023/05/26 16:48:07;;;;;;;69.43;8.30;;;;;;;;;;4984697;28;20018;-59
2023/05/26 16:50:32;;;;;;;75.33;8.53;;;;;;;;;;4983257;28;20049;-57
2023/05/26 16:52:57;;;;;;;70.30;8.37;;;;;;;;;;4982206;28;20281;-59
2023/05/26 16:55:23;;;;;;;83.75;8.90;;;;;;;;;;4983842;28;20290;-57
2023/05/26 16:57:49;;;;;;;101.05;11.38;;;;;;;;;;4985028;28;20037;-56
2023/05/26 17:00:14;;;;;;;78.03;8.65;;;;;;;;;;4983087;28;20049;-58
2023/05/26 17:02:40;;;;;;;102.03;10.50;;;;;;;;;;4983986;28;20106;-60
2023/05/26 17:05:05;;;;;;;63.67;7.37;;;;;;;;;;4986505;28;20022;-59
2023/05/26 17:07:30;;;;;;;69.00;7.18;;;;;;;;;;4982038;28;20282;-56
2023/05/26 17:09:56;;;;;;;64.10;7.47;;;;;;;;;;4982865;28;20037;-57
2023/05/26 17:12:21;;;;;;;73.23;7.83;;;;;;;;;;4981769;28;20054;-57
2023/05/26 17:14:46;;;;;;;97.55;10.55;;;;;;;;;;4983712;28;20101;-58
2023/05/26 17:17:11;;;;;;;62.33;7.00;;;;;;;;;;4982649;28;20565;-57
2023/05/26 17:19:37;;;;;;;89.88;8.75;;;;;;;;;;4983738;28;20279;-57
2023/05/26 17:22:02;;;;;;;51.88;6.60;;;;;;;;;;4985332;28;20073;-58
2023/05/26 17:24:27;;;;;;;51.05;6.43;;;;;;;;;;4981380;28;20022;-55
2023/05/26 17:26:53;;;;;;;56.53;6.80;;;;;;;;;;4978086;28;20361;-56
2023/05/26 17:29:19;;;;;;;65.15;8.18;;;;;;;;;;4982706;28;20030;-55
2023/05/26 17:31:44;;;;;;;98.88;12.23;;;;;;;;;;4980532;28;20456;-58
2023/05/26 17:34:10;;;;;;;52.38;6.90;;;;;;;;;;4982591;28;20021;-57
2023/05/26 17:36:36;;;;;;;58.03;6.90;;;;;;;;;;4982458;28;20034;-56
2023/05/26 17:39:02;;;;;;;62.95;7.53;;;;;;;;;;4983471;28;20691;-54
2023/05/26 17:41:27;;;;;;;48.72;6.22;;;;;;;;;;4982977;28;20218;-57
2023/05/26 17:43:52;;;;;;;87.05;8.85;;;;;;;;;;4980295;28;20030;-58
2023/05/26 17:46:18;;;;;;;55.10;6.33;;;;;;;;;;4982026;28;20130;-56
2023/05/26 17:48:43;;;;;;;94.40;9.40;;;;;;;;;;4982255;28;20033;-55
2023/05/26 17:51:08;;;;;;;59.33;6.65;;;;;;;;;;4987092;28;20120;-57
2023/05/26 17:53:34;;;;;;;41.38;5.88;;;;;;;;;;4982890;28;20018;-58
2023/05/26 17:55:59;;;;;;;44.10;5.55;;;;;;;;;;4982672;28;20465;-55
2023/05/26 17:58:24;;;;;;;68.75;7.35;;;;;;;;;;4982928;28;20032;-55
2023/05/26 18:00:50;;;;;;;95.07;9.65;;;;;;;;;;4982069;28;20093;-58
2023/05/26 18:03:15;;;;;;;74.15;8.13;;;;;;;;;;4983267;28;20493;-56
2023/05/26 18:05:40;;;;;;;115.80;11.37;;;;;;;;;;4979368;28;20460;-55
2023/05/26 18:08:06;;;;;;;67.50;7.30;;;;;;;;;;4985135;28;20299;-55
2023/05/26 18:10:31;;;;;;;74.97;7.97;;;;;;;;;;4982520;28;20100;-56
2023/05/26 18:12:56;;;;;;;65.82;7.45;;;;;;;;;;4982585;28;20038;-59
2023/05/26 18:15:22;;;;;;;82.75;7.90;;;;;;;;;;4980727;28;20061;-58
2023/05/26 18:17:47;;;;;;;133.67;12.30;;;;;;;;;;4983738;28;20918;-58
2023/05/26 18:20:12;;;;;;;63.72;6.97;;;;;;;;;;4982064;28;20283;-56
2023/05/26 18:22:38;;;;;;;92.40;8.60;;;;;;;;;;4981945;28;20029;-57
2023/05/26 18:25:03;;;;;;;73.00;7.57;;;;;;;;;;4982239;28;20507;-59
2023/05/26 18:27:28;;;;;;;57.55;6.68;;;;;;;;;;4982753;28;20026;-57
2023/05/26 18:29:56;;;;;;;134.13;12.02;;;;;;;;;;4979880;28;20026;-56
2023/05/26 18:32:21;;;;;;;83.35;8.50;;;;;;;;;;4982632;28;20111;-56
2023/05/26 18:34:46;;;;;;;111.40;9.90;;;;;;;;;;4980407;28;20030;-57
2023/05/26 18:37:11;;;;;;;78.17;7.70;;;;;;;;;;4985222;28;20030;-59
2023/05/26 18:39:37;;;;;;;81.18;7.88;;;;;;;;;;4985595;28;20250;-55
2023/05/26 18:42:02;;;;;;;68.83;7.20;;;;;;;;;;4985956;28;20038;-59
2023/05/26 18:44:28;;;;;;;81.32;7.78;;;;;;;;;;4988589;28;20261;-58
2023/05/26 18:46:53;;;;;;;121.93;10.25;;;;;;;;;;4983561;28;20082;-58
2023/05/26 18:49:18;;;;;;;106.57;9.40;;;;;;;;;;4987448;28;20037;-58
2023/05/26 18:51:44;;;;;;;119.03;10.97;;;;;;;;;;4985760;28;20324;-57
2023/05/26 18:54:11;;;;;;;75.57;7.38;;;;;;;;;;4984549;28;20285;-59
2023/05/26 18:56:37;;;;;;;75.50;7.32;;;;;;;;;;4986932;28;20048;-57
2023/05/26 18:59:03;;;;;;;63.58;6.95;;;;;;;;;;4987507;28;20032;-57
2023/05/26 19:01:28;;;;;;;55.80;6.60;;;;;;;;;;4987614;28;20042;-59
2023/05/26 19:03:53;;;;;;;102.32;9.30;;;;;;;;;;4985406;28;20268;-59
2023/05/26 19:06:19;;;;;;;65.67;6.37;;;;;;;;;;4986206;28;20121;-56
2023/05/26 19:08:44;;;;;;;116.18;10.63;;;;;;;;;;4983392;28;20360;-55
2023/05/26 19:11:10;;;;;;;64.18;6.45;;;;;;;;;;4985852;28;20030;-57
2023/05/26 19:13:36;;;;;;;46.03;5.45;;;;;;;;;;4986197;28;20022;-56
2023/05/26 19:16:01;;;;;;;52.75;6.03;;;;;;;;;;4983172;28;20060;-58
2023/05/26 19:18:26;;;;;;;51.33;5.80;;;;;;;;;;4985826;28;20026;-59
2023/05/26 19:20:52;;;;;;;106.03;9.97;;;;;;;;;;4983922;28;20073;-58
2023/05/26 19:23:17;;;;;;;59.67;6.63;;;;;;;;;;4982977;28;20277;-56
2023/05/26 19:25:42;;;;;;;82.43;8.27;;;;;;;;;;4983842;28;20045;-58
2023/05/26 19:28:08;;;;;;;73.03;6.80;;;;;;;;;;4987148;28;20033;-58
2023/05/26 19:30:34;;;;;;;47.30;5.75;;;;;;;;;;4984243;28;20287;-57
2023/05/26 19:32:59;;;;;;;48.50;5.40;;;;;;;;;;4983549;28;20776;-55
2023/05/26 19:35:24;;;;;;;89.53;7.78;;;;;;;;;;4984130;28;20027;-57
2023/05/26 19:37:50;;;;;;;114.97;11.03;;;;;;;;;;4983700;28;20372;-54
2023/05/26 19:40:15;;;;;;;52.28;5.90;;;;;;;;;;4985779;28;21069;-55
2023/05/26 19:42:40;;;;;;;63.28;6.85;;;;;;;;;;4988223;28;20144;-54
2023/05/26 19:45:06;;;;;;;59.78;6.43;;;;;;;;;;4985468;28;20018;-59
2023/05/26 19:47:31;;;;;;;74.57;7.13;;;;;;;;;;4984428;28;20038;-56
2023/05/26 19:49:57;;;;;;;94.93;9.03;;;;;;;;;;4982812;28;20033;-56
2023/05/26 19:52:23;;;;;;;75.53;7.50;;;;;;;;;;4982596;28;20408;-56
2023/05/26 19:54:48;;;;;;;125.95;10.90;;;;;;;;;;4983640;28;20030;-57
2023/05/26 19:57:13;;;;;;;72.80;7.78;;;;;;;;;;4983174;28;20053;-57
2023/05/26 19:59:39;;;;;;;86.33;7.67;;;;;;;;;;4984389;28;20481;-57
2023/05/26 20:02:04;;;;;;;78.10;7.72;;;;;;;;;;4982947;28;20738;-58
2023/05/26 20:04:29;;;;;;;66.20;6.82;;;;;;;;;;4985717;28;20026;-58
2023/05/26 20:06:55;;;;;;;144.52;12.25;;;;;;;;;;4985004;28;20468;-56
2023/05/26 20:09:20;;;;;;;87.68;8.38;;;;;;;;;;4983856;28;20018;-58
2023/05/26 20:11:45;;;;;;;85.47;8.27;;;;;;;;;;4983908;28;20041;-59
2023/05/26 20:14:10;;;;;;;97.63;8.73;;;;;;;;;;4985375;28;20268;-59
2023/05/26 20:16:36;;;;;;;76.40;7.13;;;;;;;;;;4984460;28;20292;-55
2023/05/26 20:19:01;;;;;;;126.20;10.85;;;;;;;;;;4984910;28;20033;-55
2023/05/26 20:21:26;;;;;;;93.40;8.15;;;;;;;;;;4984299;28;20412;-55
2023/05/26 20:23:52;;;;;;;129.73;11.52;;;;;;;;;;4983412;28;20684;-58
2023/05/26 20:26:17;;;;;;;80.22;7.90;;;;;;;;;;4983244;28;20518;-59
2023/05/26 20:28:44;;;;;;;85.15;8.02;;;;;;;;;;4984012;28;20019;-58
2023/05/26 20:31:09;;;;;;;69.78;7.18;;;;;;;;;;4985799;28;20060;-62
2023/05/26 20:33:34;;;;;;;92.23;8.80;;;;;;;;;;4990657;28;20019;-59
2023/05/26 20:35:59;;;;;;;130.60;12.25;;;;;;;;;;4985753;28;20316;-57
2023/05/26 20:38:25;;;;;;;81.27;7.43;;;;;;;;;;4983642;28;20128;-58
2023/05/26 20:40:50;;;;;;;121.70;10.73;;;;;;;;;;4984754;28;20258;-58
2023/05/26 20:43:15;;;;;;;87.67;7.87;;;;;;;;;;4983645;28;20056;-63
2023/05/26 20:45:41;;;;;;;80.85;7.60;;;;;;;;;;4984771;28;20270;-58
2023/05/26 20:48:06;;;;;;;81.47;7.68;;;;;;;;;;4983136;28;20113;-59
2023/05/26 20:50:31;;;;;;;72.50;7.23;;;;;;;;;;4983351;28;20117;-57
2023/05/26 20:52:57;;;;;;;115.05;9.40;;;;;;;;;;4981415;28;21134;-59
2023/05/26 20:55:22;;;;;;;92.18;8.50;;;;;;;;;;4981423;28;20080;-57
2023/05/26 20:57:47;;;;;;;96.22;8.85;;;;;;;;;;4983887;28;20037;-56
2023/05/26 21:00:13;;;;;;;81.93;8.02;;;;;;;;;;4982066;28;20085;-58
2023/05/26 21:02:38;;;;;;;72.05;7.38;;;;;;;;;;4983374;28;20017;-61
2023/05/26 21:05:03;;;;;;;117.73;10.30;;;;;;;;;;4982529;28;20018;-58
2023/05/26 21:07:29;;;;;;;57.53;6.10;;;;;;;;;;4983092;28;20278;-59
2023/05/26 21:09:54;;;;;;;101.25;9.25;;;;;;;;;;4982578;28;20021;-62
2023/05/26 21:12:20;;;;;;;71.60;7.05;;;;;;;;;;4983871;28;20038;-56
2023/05/26 21:14:45;;;;;;;59.85;6.80;;;;;;;;;;4984416;28;20097;-57
2023/05/26 21:17:11;;;;;;;51.17;5.78;;;;;;;;;;4982638;28;20057;-61
2023/05/26 21:19:37;;;;;;;76.45;7.47;;;;;;;;;;4984853;28;20029;-60
2023/05/26 21:22:02;;;;;;;101.40;9.37;;;;;;;;;;4981852;28;20042;-61
2023/05/26 21:24:27;;;;;;;56.78;6.70;;;;;;;;;;4983130;28;20284;-58
2023/05/26 21:26:52;;;;;;;108.53;10.57;;;;;;;;;;4981571;28;20053;-60
2023/05/26 21:29:17;;;;;;;71.37;6.93;;;;;;;;;;4984148;28;20272;-56
2023/05/26 21:31:43;;;;;;;79.43;7.47;;;;;;;;;;4982558;28;20265;-57
2023/05/26 21:34:08;;;;;;;56.92;6.40;;;;;;;;;;4982122;28;20314;-55
2023/05/26 21:36:33;;;;;;;59.17;6.32;;;;;;;;;;4981551;28;20038;-59
2023/05/26 21:38:58;;;;;;;119.07;10.83;;;;;;;;;;4982724;28;20034;-58
2023/05/26 21:41:24;;;;;;;53.35;6.25;;;;;;;;;;4981589;28;20350;-56
2023/05/26 21:43:49;;;;;;;66.45;6.82;;;;;;;;;;4981031;28;20022;-55
2023/05/26 21:46:14;;;;;;;67.38;7.05;;;;;;;;;;4989436;28;20070;-55
2023/05/26 21:48:40;;;;;;;65.30;6.53;;;;;;;;;;4983626;28;20029;-55
2023/05/26 21:51:05;;;;;;;107.25;8.82;;;;;;;;;;4981736;28;20045;-55
2023/05/26 21:53:30;;;;;;;48.07;5.63;;;;;;;;;;4982729;28;20029;-56
2023/05/26 21:55:55;;;;;;;92.30;8.40;;;;;;;;;;4982077;28;20898;-55
2023/05/26 21:58:21;;;;;;;72.63;7.13;;;;;;;;;;4982982;28;20113;-58
2023/05/26 22:00:46;;;;;;;62.92;6.88;;;;;;;;;;4983658;28;20783;-54
2023/05/26 22:03:11;;;;;;;64.13;6.57;;;;;;;;;;4980508;28;20026;-57
2023/05/26 22:05:37;;;;;;;78.22;7.20;;;;;;;;;;4980501;28;20404;-55
2023/05/26 22:08:02;;;;;;;109.68;9.88;;;;;;;;;;4983038;28;20072;-55
2023/05/26 22:10:27;;;;;;;77.80;7.63;;;;;;;;;;4981753;28;20550;-57
2023/05/26 22:12:52;;;;;;;100.45;9.38;;;;;;;;;;4985305;28;20188;-58
2023/05/26 22:15:18;;;;;;;86.43;7.90;;;;;;;;;;4986341;28;20022;-55
2023/05/26 22:17:43;;;;;;;94.22;8.43;;;;;;;;;;4987292;28;20269;-57
2023/05/26 22:20:08;;;;;;;70.50;7.07;;;;;;;;;;4986071;28;20030;-56
2023/05/26 22:22:34;;;;;;;75.78;7.47;;;;;;;;;;4985920;28;20273;-56
2023/05/26 22:25:00;;;;;;;132.45;10.60;;;;;;;;;;4983826;28;20093;-56
2023/05/26 22:27:26;;;;;;;70.00;7.10;;;;;;;;;;4987643;28;20474;-57
2023/05/26 22:29:51;;;;;;;79.93;7.50;;;;;;;;;;4984008;28;20539;-58
2023/05/26 22:32:16;;;;;;;88.57;8.07;;;;;;;;;;4986012;28;20033;-57
2023/05/26 22:34:42;;;;;;;87.53;8.32;;;;;;;;;;4971927;28;20269;-58
2023/05/26 22:37:08;;;;;;;135.27;10.98;;;;;;;;;;4985003;28;20120;-56
2023/05/26 22:39:33;;;;;;;74.88;7.20;;;;;;;;;;4984718;28;20486;-56
2023/05/26 22:41:58;;;;;;;107.63;9.43;;;;;;;;;;4984267;28;20381;-58
2023/05/26 22:44:23;;;;;;;93.10;8.02;;;;;;;;;;4987179;28;20379;-57
2023/05/26 22:46:49;;;;;;;85.32;7.75;;;;;;;;;;4985174;28;20840;-59
2023/05/26 22:49:15;;;;;;;85.50;7.82;;;;;;;;;;4985122;28;20030;-58
2023/05/26 22:51:41;;;;;;;74.53;7.28;;;;;;;;;;4985689;28;20592;-58
2023/05/26 22:54:06;;;;;;;133.18;12.00;;;;;;;;;;4984810;28;20101;-58
2023/05/26 22:56:31;;;;;;;101.65;8.77;;;;;;;;;;4984440;28;20045;-57
2023/05/26 22:58:57;;;;;;;94.78;9.20;;;;;;;;;;4987392;28;20126;-59
